sensor_id;sensor_type;location;lat;lon;timestamp;pressure;altitude;pressure_sealevel;temperature;humidity
34124;BME280;13153;52.316;21.166;2022-11-15T00:00:51;100845.06;;;10.96;62.26
34124;BME280;13153;52.316;21.166;2022-11-15T00:03:21;100845.97;;;10.98;62.15
34124;BME280;13153;52.316;21.166;2022-11-15T00:05:47;100839.84;;;10.97;62.23
34124;BME280;13153;52.316;21.166;2022-11-15T00:08:13;100841.41;;;10.90;62.09
34124;BME280;13153;52.316;21.166;2022-11-15T00:10:39;100830.03;;;10.91;62.28
34124;BME280;13153;52.316;21.166;2022-11-15T00:13:11;100829.91;;;10.88;62.55
34124;BME280;13153;52.316;21.166;2022-11-15T00:15:41;100819.69;;;10.71;62.95
34124;BME280;13153;52.316;21.166;2022-11-15T00:18:13;100818.25;;;10.80;63.26
34124;BME280;13153;52.316;21.166;2022-11-15T00:20:39;100823.22;;;10.71;62.84
34124;BME280;13153;52.316;21.166;2022-11-15T00:23:05;100816.31;;;10.75;63.12
34124;BME280;13153;52.316;21.166;2022-11-15T00:25:32;100813.78;;;10.78;62.63
34124;BME280;13153;52.316;21.166;2022-11-15T00:27:59;100810.41;;;10.82;63.05
34124;BME280;13153;52.316;21.166;2022-11-15T00:30:26;100806.03;;;10.82;62.97
34124;BME280;13153;52.316;21.166;2022-11-15T00:32:52;100809.66;;;10.86;62.82
34124;BME280;13153;52.316;21.166;2022-11-15T00:35:18;100798.28;;;10.87;62.94
34124;BME280;13153;52.316;21.166;2022-11-15T00:37:45;100791.19;;;10.84;63.01
34124;BME280;13153;52.316;21.166;2022-11-15T00:40:13;100799.13;;;10.86;63.15
34124;BME280;13153;52.316;21.166;2022-11-15T00:42:39;100791.31;;;10.89;62.84
34124;BME280;13153;52.316;21.166;2022-11-15T00:45:06;100777.38;;;10.91;62.87
34124;BME280;13153;52.316;21.166;2022-11-15T00:47:31;100784.16;;;10.85;62.89
34124;BME280;13153;52.316;21.166;2022-11-15T00:49:58;100782.19;;;10.78;63.07
34124;BME280;13153;52.316;21.166;2022-11-15T00:52:23;100776.03;;;10.77;63.09
34124;BME280;13153;52.316;21.166;2022-11-15T00:54:49;100768.13;;;10.77;63.21
34124;BME280;13153;52.316;21.166;2022-11-15T00:57:15;100768.84;;;10.72;63.42
34124;BME280;13153;52.316;21.166;2022-11-15T00:59:40;100759.91;;;10.67;63.73
34124;BME280;13153;52.316;21.166;2022-11-15T01:02:06;100756.63;;;10.74;63.64
34124;BME280;13153;52.316;21.166;2022-11-15T01:04:32;100753.03;;;10.72;63.39
34124;BME280;13153;52.316;21.166;2022-11-15T01:06:58;100746.03;;;10.72;63.50
34124;BME280;13153;52.316;21.166;2022-11-15T01:09:23;100747.97;;;10.78;63.42
34124;BME280;13153;52.316;21.166;2022-11-15T01:11:49;100737.53;;;10.81;63.33
34124;BME280;13153;52.316;21.166;2022-11-15T01:14:15;100735.75;;;10.80;63.38
34124;BME280;13153;52.316;21.166;2022-11-15T01:16:42;100739.88;;;10.72;63.44
34124;BME280;13153;52.316;21.166;2022-11-15T01:19:07;100741.72;;;10.74;63.45
34124;BME280;13153;52.316;21.166;2022-11-15T01:21:33;100744.25;;;10.71;63.39
34124;BME280;13153;52.316;21.166;2022-11-15T01:23:59;100732.72;;;10.68;63.34
34124;BME280;13153;52.316;21.166;2022-11-15T01:26:25;100723.84;;;10.64;63.55
34124;BME280;13153;52.316;21.166;2022-11-15T01:28:51;100727.22;;;10.60;63.70
34124;BME280;13153;52.316;21.166;2022-11-15T01:31:21;100722.56;;;10.51;63.81
34124;BME280;13153;52.316;21.166;2022-11-15T01:33:48;100722.19;;;10.39;64.11
34124;BME280;13153;52.316;21.166;2022-11-15T01:36:20;100714.56;;;10.48;64.44
34124;BME280;13153;52.316;21.166;2022-11-15T01:38:57;100713.91;;;10.55;63.88
34124;BME280;13153;52.316;21.166;2022-11-15T01:41:27;100703.50;;;10.58;63.64
34124;BME280;13153;52.316;21.166;2022-11-15T01:43:56;100706.28;;;10.63;63.97
34124;BME280;13153;52.316;21.166;2022-11-15T01:46:35;100694.66;;;10.56;64.02
34124;BME280;13153;52.316;21.166;2022-11-15T01:49:08;100687.56;;;10.54;64.01
34124;BME280;13153;52.316;21.166;2022-11-15T01:51:37;100677.09;;;10.55;64.04
34124;BME280;13153;52.316;21.166;2022-11-15T01:54:12;100671.69;;;10.51;64.15
34124;BME280;13153;52.316;21.166;2022-11-15T01:57:04;100691.94;;;10.53;64.08
34124;BME280;13153;52.316;21.166;2022-11-15T01:59:30;100682.16;;;10.49;64.13
34124;BME280;13153;52.316;21.166;2022-11-15T02:01:56;100671.81;;;10.55;64.35
34124;BME280;13153;52.316;21.166;2022-11-15T02:04:28;100688.50;;;10.56;64.03
34124;BME280;13153;52.316;21.166;2022-11-15T02:06:55;100675.44;;;10.59;64.02
34124;BME280;13153;52.316;21.166;2022-11-15T02:09:21;100683.47;;;10.64;64.02
34124;BME280;13153;52.316;21.166;2022-11-15T02:11:48;100672.09;;;10.65;64.05
34124;BME280;13153;52.316;21.166;2022-11-15T02:14:18;100663.09;;;10.56;64.30
34124;BME280;13153;52.316;21.166;2022-11-15T02:27:02;100655.56;;;10.69;63.93
34124;BME280;13153;52.316;21.166;2022-11-15T02:32:21;100672.41;;;10.74;63.95
34124;BME280;13153;52.316;21.166;2022-11-15T02:37:59;100662.66;;;10.71;63.89
34124;BME280;13153;52.316;21.166;2022-11-15T02:40:52;100652.81;;;10.64;63.61
34124;BME280;13153;52.316;21.166;2022-11-15T02:43:34;100651.91;;;10.64;64.32
34124;BME280;13153;52.316;21.166;2022-11-15T02:46:43;100645.59;;;10.58;64.22
34124;BME280;13153;52.316;21.166;2022-11-15T02:49:33;100646.34;;;10.54;64.33
34124;BME280;13153;52.316;21.166;2022-11-15T02:52:00;100642.88;;;10.55;64.26
34124;BME280;13153;52.316;21.166;2022-11-15T02:54:30;100639.41;;;10.56;64.59
34124;BME280;13153;52.316;21.166;2022-11-15T02:57:05;100633.19;;;10.54;64.42
34124;BME280;13153;52.316;21.166;2022-11-15T03:00:03;100627.09;;;10.55;64.29
34124;BME280;13153;52.316;21.166;2022-11-15T03:03:09;100625.63;;;10.65;64.41
34124;BME280;13153;52.316;21.166;2022-11-15T03:06:35;100626.56;;;10.67;64.08
34124;BME280;13153;52.316;21.166;2022-11-15T03:11:40;100601.16;;;10.68;64.60
34124;BME280;13153;52.316;21.166;2022-11-15T03:19:47;100603.91;;;10.72;64.33
34124;BME280;13153;52.316;21.166;2022-11-15T03:22:21;100601.28;;;10.72;64.48
34124;BME280;13153;52.316;21.166;2022-11-15T03:24:57;100600.41;;;10.72;64.56
34124;BME280;13153;52.316;21.166;2022-11-15T03:27:31;100593.47;;;10.75;64.17
34124;BME280;13153;52.316;21.166;2022-11-15T03:30:04;100590.91;;;10.77;64.32
34124;BME280;13153;52.316;21.166;2022-11-15T03:32:36;100576.53;;;10.66;64.22
34124;BME280;13153;52.316;21.166;2022-11-15T03:35:12;100574.75;;;10.65;64.31
34124;BME280;13153;52.316;21.166;2022-11-15T03:38:04;100585.84;;;10.54;64.32
34124;BME280;13153;52.316;21.166;2022-11-15T03:40:46;100583.34;;;10.59;64.80
34124;BME280;13153;52.316;21.166;2022-11-15T03:43:47;100571.97;;;10.60;64.52
34124;BME280;13153;52.316;21.166;2022-11-15T03:46:23;100565.59;;;10.52;64.50
34124;BME280;13153;52.316;21.166;2022-11-15T03:48:59;100567.28;;;10.50;64.97
34124;BME280;13153;52.316;21.166;2022-11-15T03:51:29;100556.59;;;10.44;65.14
34124;BME280;13153;52.316;21.166;2022-11-15T03:53:55;100557.16;;;10.32;64.90
34124;BME280;13153;52.316;21.166;2022-11-15T03:56:21;100558.59;;;10.22;65.63
34124;BME280;13153;52.316;21.166;2022-11-15T03:58:46;100549.81;;;10.22;65.68
34124;BME280;13153;52.316;21.166;2022-11-15T04:01:12;100547.19;;;10.22;65.82
34124;BME280;13153;52.316;21.166;2022-11-15T04:03:38;100540.19;;;10.22;65.79
34124;BME280;13153;52.316;21.166;2022-11-15T04:06:04;100548.03;;;10.21;65.40
34124;BME280;13153;52.316;21.166;2022-11-15T04:08:29;100548.31;;;10.30;65.63
34124;BME280;13153;52.316;21.166;2022-11-15T04:10:55;100551.88;;;10.32;65.04
34124;BME280;13153;52.316;21.166;2022-11-15T04:13:21;100540.50;;;10.33;65.14
34124;BME280;13153;52.316;21.166;2022-11-15T04:15:46;100534.94;;;10.22;65.11
34124;BME280;13153;52.316;21.166;2022-11-15T04:18:12;100535.72;;;10.20;65.53
34124;BME280;13153;52.316;21.166;2022-11-15T04:20:38;100535.72;;;10.20;65.25
34124;BME280;13153;52.316;21.166;2022-11-15T04:23:23;100531.50;;;10.25;65.46
34124;BME280;13153;52.316;21.166;2022-11-15T04:26:26;100527.09;;;10.24;65.40
34124;BME280;13153;52.316;21.166;2022-11-15T04:28:51;100532.25;;;10.21;65.49
34124;BME280;13153;52.316;21.166;2022-11-15T04:31:35;100521.50;;;10.15;65.94
34124;BME280;13153;52.316;21.166;2022-11-15T04:34:01;100527.00;;;10.21;65.67
34124;BME280;13153;52.316;21.166;2022-11-15T04:36:27;100520.19;;;10.28;65.63
34124;BME280;13153;52.316;21.166;2022-11-15T04:39:11;100529.72;;;10.24;65.59
34124;BME280;13153;52.316;21.166;2022-11-15T04:41:36;100518.53;;;10.31;65.61
34124;BME280;13153;52.316;21.166;2022-11-15T04:44:02;100522.19;;;10.36;65.17
34124;BME280;13153;52.316;21.166;2022-11-15T04:46:28;100525.03;;;10.44;65.30
34124;BME280;13153;52.316;21.166;2022-11-15T04:48:54;100518.97;;;10.46;65.35
34124;BME280;13153;52.316;21.166;2022-11-15T04:51:20;100515.47;;;10.47;64.97
34124;BME280;13153;52.316;21.166;2022-11-15T04:53:46;100515.47;;;10.47;64.85
34124;BME280;13153;52.316;21.166;2022-11-15T04:56:13;100514.63;;;10.48;65.09
34124;BME280;13153;52.316;21.166;2022-11-15T04:58:38;100511.06;;;10.46;64.74
34124;BME280;13153;52.316;21.166;2022-11-15T05:01:13;100508.53;;;10.49;65.13
34124;BME280;13153;52.316;21.166;2022-11-15T05:03:41;100505.13;;;10.53;64.67
34124;BME280;13153;52.316;21.166;2022-11-15T05:06:25;100505.22;;;10.56;65.00
34124;BME280;13153;52.316;21.166;2022-11-15T05:08:51;100515.00;;;10.61;64.77
34124;BME280;13153;52.316;21.166;2022-11-15T05:11:17;100505.56;;;10.69;64.79
34124;BME280;13153;52.316;21.166;2022-11-15T05:13:43;100500.41;;;10.72;64.41
34124;BME280;13153;52.316;21.166;2022-11-15T05:16:09;100503.13;;;10.75;64.14
34124;BME280;13153;52.316;21.166;2022-11-15T05:18:34;100505.84;;;10.78;63.93
34124;BME280;13153;52.316;21.166;2022-11-15T05:21:05;100498.81;;;10.78;63.85
34124;BME280;13153;52.316;21.166;2022-11-15T05:23:31;100497.94;;;10.78;63.95
34124;BME280;13153;52.316;21.166;2022-11-15T05:26:02;100490.03;;;10.78;63.66
34124;BME280;13153;52.316;21.166;2022-11-15T05:28:29;100497.84;;;10.75;63.74
34124;BME280;13153;52.316;21.166;2022-11-15T05:31:08;100497.72;;;10.70;63.67
34124;BME280;13153;52.316;21.166;2022-11-15T05:33:37;100501.06;;;10.65;64.08
34124;BME280;13153;52.316;21.166;2022-11-15T05:38:35;100498.34;;;10.62;64.36
34124;BME280;13153;52.316;21.166;2022-11-15T05:41:02;100499.28;;;10.64;64.10
34124;BME280;13153;52.316;21.166;2022-11-15T05:43:31;100497.56;;;10.64;64.39
34124;BME280;13153;52.316;21.166;2022-11-15T05:46:01;100496.56;;;10.61;64.06
34124;BME280;13153;52.316;21.166;2022-11-15T05:48:28;100495.50;;;10.54;64.69
34124;BME280;13153;52.316;21.166;2022-11-15T05:50:54;100492.91;;;10.55;64.87
34124;BME280;13153;52.316;21.166;2022-11-15T05:53:24;100494.75;;;10.58;64.77
34124;BME280;13153;52.316;21.166;2022-11-15T05:55:51;100490.25;;;10.54;64.61
34124;BME280;13153;52.316;21.166;2022-11-15T05:58:19;100491.94;;;10.52;64.76
34124;BME280;13153;52.316;21.166;2022-11-15T06:00:46;100492.91;;;10.55;64.76
34124;BME280;13153;52.316;21.166;2022-11-15T06:03:12;100485.88;;;10.54;64.36
34124;BME280;13153;52.316;21.166;2022-11-15T06:05:40;100485.09;;;10.58;64.58
34124;BME280;13153;52.316;21.166;2022-11-15T06:08:06;100485.03;;;10.55;64.63
34124;BME280;13153;52.316;21.166;2022-11-15T06:10:33;100482.38;;;10.55;64.69
34124;BME280;13153;52.316;21.166;2022-11-15T06:13:01;100483.81;;;10.44;64.61
34124;BME280;13153;52.316;21.166;2022-11-15T06:15:27;100489.19;;;10.47;64.79
34124;BME280;13153;52.316;21.166;2022-11-15T06:17:56;100484.00;;;10.50;64.97
34124;BME280;13153;52.316;21.166;2022-11-15T06:20:27;100488.50;;;10.54;64.73
34124;BME280;13153;52.316;21.166;2022-11-15T06:22:58;100494.69;;;10.56;64.42
34124;BME280;13153;52.316;21.166;2022-11-15T06:25:25;100489.47;;;10.58;64.61
34124;BME280;13153;52.316;21.166;2022-11-15T06:27:58;100479.94;;;10.62;64.27
34124;BME280;13153;52.316;21.166;2022-11-15T06:30:26;100482.59;;;10.63;64.29
34124;BME280;13153;52.316;21.166;2022-11-15T06:32:59;100497.59;;;10.66;64.47
34124;BME280;13153;52.316;21.166;2022-11-15T06:35:26;100490.59;;;10.66;64.33
34124;BME280;13153;52.316;21.166;2022-11-15T06:37:51;100496.69;;;10.65;64.42
34124;BME280;13153;52.316;21.166;2022-11-15T06:40:17;100489.66;;;10.64;64.47
34124;BME280;13153;52.316;21.166;2022-11-15T06:42:43;100493.19;;;10.65;64.60
34124;BME280;13153;52.316;21.166;2022-11-15T06:45:09;100493.19;;;10.65;64.32
34124;BME280;13153;52.316;21.166;2022-11-15T06:47:35;100493.31;;;10.69;64.38
34124;BME280;13153;52.316;21.166;2022-11-15T06:50:00;100492.50;;;10.72;64.38
34124;BME280;13153;52.316;21.166;2022-11-15T06:52:26;100498.69;;;10.74;64.38
34124;BME280;13153;52.316;21.166;2022-11-15T06:54:52;100498.78;;;10.77;64.31
34124;BME280;13153;52.316;21.166;2022-11-15T06:57:17;100493.53;;;10.77;64.13
34124;BME280;13153;52.316;21.166;2022-11-15T06:59:43;100499.53;;;10.73;64.08
34124;BME280;13153;52.316;21.166;2022-11-15T07:02:13;100501.25;;;10.71;64.27
34124;BME280;13153;52.316;21.166;2022-11-15T07:04:39;100503.03;;;10.72;64.35
34124;BME280;13153;52.316;21.166;2022-11-15T07:07:05;100506.59;;;10.74;64.40
34124;BME280;13153;52.316;21.166;2022-11-15T07:09:31;100502.25;;;10.76;64.38
34124;BME280;13153;52.316;21.166;2022-11-15T07:11:56;100495.31;;;10.78;64.47
34124;BME280;13153;52.316;21.166;2022-11-15T07:14:22;100496.16;;;10.77;64.23
34124;BME280;13153;52.316;21.166;2022-11-15T07:16:47;100497.94;;;10.78;64.13
34124;BME280;13153;52.316;21.166;2022-11-15T07:19:13;100500.47;;;10.75;64.25
34124;BME280;13153;52.316;21.166;2022-11-15T07:21:39;100501.31;;;10.74;64.29
34124;BME280;13153;52.316;21.166;2022-11-15T07:24:05;100493.44;;;10.74;64.23
34124;BME280;13153;52.316;21.166;2022-11-15T07:26:31;100488.94;;;10.70;64.58
34124;BME280;13153;52.316;21.166;2022-11-15T07:28:56;100498.66;;;10.72;64.48
34124;BME280;13153;52.316;21.166;2022-11-15T07:31:22;100491.47;;;10.67;64.25
34124;BME280;13153;52.316;21.166;2022-11-15T07:33:48;100494.16;;;10.68;64.51
34124;BME280;13153;52.316;21.166;2022-11-15T07:36:14;100495.09;;;10.70;64.40
34124;BME280;13153;52.316;21.166;2022-11-15T07:38:39;100498.66;;;10.72;64.35
34124;BME280;13153;52.316;21.166;2022-11-15T07:41:06;100493.47;;;10.75;64.42
34124;BME280;13153;52.316;21.166;2022-11-15T07:43:32;100498.88;;;10.80;64.35
34124;BME280;13153;52.316;21.166;2022-11-15T07:46:06;100496.31;;;10.83;64.33
34124;BME280;13153;52.316;21.166;2022-11-15T07:48:35;100497.22;;;10.83;63.84
34124;BME280;13153;52.316;21.166;2022-11-15T07:51:02;100492.00;;;10.85;64.18
34124;BME280;13153;52.316;21.166;2022-11-15T07:53:28;100490.31;;;10.88;64.08
34124;BME280;13153;52.316;21.166;2022-11-15T07:55:54;100488.59;;;10.89;63.53
34124;BME280;13153;52.316;21.166;2022-11-15T07:58:19;100485.09;;;10.90;63.67
34124;BME280;13153;52.316;21.166;2022-11-15T08:00:45;100473.72;;;10.91;63.52
34124;BME280;13153;52.316;21.166;2022-11-15T08:03:15;100465.91;;;10.94;63.69
34124;BME280;13153;52.316;21.166;2022-11-15T08:05:42;100470.38;;;10.97;63.27
34124;BME280;13153;52.316;21.166;2022-11-15T08:08:10;100467.66;;;10.94;63.20
34124;BME280;13153;52.316;21.166;2022-11-15T08:10:37;100472.97;;;10.95;62.79
34124;BME280;13153;52.316;21.166;2022-11-15T08:13:11;100457.84;;;10.88;63.09
34124;BME280;13153;52.316;21.166;2022-11-15T08:15:38;100460.31;;;10.82;62.76
34124;BME280;13153;52.316;21.166;2022-11-15T08:18:13;100450.56;;;10.78;62.99
34124;BME280;13153;52.316;21.166;2022-11-15T08:20:39;100446.88;;;10.71;63.23
34124;BME280;13153;52.316;21.166;2022-11-15T08:23:06;100448.66;;;10.72;63.55
34124;BME280;13153;52.316;21.166;2022-11-15T08:25:35;100452.09;;;10.70;63.33
34124;BME280;13153;52.316;21.166;2022-11-15T08:28:04;100444.28;;;10.73;63.43
34124;BME280;13153;52.316;21.166;2022-11-15T08:30:30;100443.47;;;10.75;63.53
34124;BME280;13153;52.316;21.166;2022-11-15T08:33:00;100440.88;;;10.77;63.49
34124;BME280;13153;52.316;21.166;2022-11-15T08:35:25;100448.00;;;10.81;63.47
34124;BME280;13153;52.316;21.166;2022-11-15T08:37:53;100441.97;;;10.85;63.80
34124;BME280;13153;52.316;21.166;2022-11-15T08:40:19;100443.69;;;10.83;63.38
34124;BME280;13153;52.316;21.166;2022-11-15T08:42:48;100437.28;;;10.73;63.38
34124;BME280;13153;52.316;21.166;2022-11-15T08:45:14;100437.22;;;10.72;63.26
34124;BME280;13153;52.316;21.166;2022-11-15T08:47:40;100437.06;;;10.66;63.21
34124;BME280;13153;52.316;21.166;2022-11-15T08:50:07;100441.59;;;10.71;63.42
34124;BME280;13153;52.316;21.166;2022-11-15T08:52:33;100433.00;;;10.77;63.61
34124;BME280;13153;52.316;21.166;2022-11-15T08:54:59;100436.63;;;10.82;63.50
34124;BME280;13153;52.316;21.166;2022-11-15T08:57:24;100436.84;;;10.89;63.49
34124;BME280;13153;52.316;21.166;2022-11-15T08:59:53;100432.63;;;10.96;63.18
34124;BME280;13153;52.316;21.166;2022-11-15T09:02:19;100442.34;;;11.00;62.99
34124;BME280;13153;52.316;21.166;2022-11-15T09:04:44;100427.47;;;11.02;62.83
34124;BME280;13153;52.316;21.166;2022-11-15T09:07:11;100426.75;;;11.08;62.46
34124;BME280;13153;52.316;21.166;2022-11-15T09:09:39;100427.72;;;11.11;62.39
34124;BME280;13153;52.316;21.166;2022-11-15T09:12:06;100421.66;;;11.15;62.14
34124;BME280;13153;52.316;21.166;2022-11-15T09:14:32;100423.50;;;11.18;62.10
34124;BME280;13153;52.316;21.166;2022-11-15T09:16:59;100420.81;;;11.16;61.84
34124;BME280;13153;52.316;21.166;2022-11-15T09:19:25;100410.28;;;11.16;61.61
34124;BME280;13153;52.316;21.166;2022-11-15T09:21:50;100412.06;;;11.17;61.77
34124;BME280;13153;52.316;21.166;2022-11-15T09:24:16;100406.66;;;11.11;61.72
34124;BME280;13153;52.316;21.166;2022-11-15T09:26:43;100399.53;;;11.07;61.87
34124;BME280;13153;52.316;21.166;2022-11-15T09:29:09;100405.63;;;11.06;61.77
34124;BME280;13153;52.316;21.166;2022-11-15T09:31:35;100393.22;;;11.01;61.86
34124;BME280;13153;52.316;21.166;2022-11-15T09:34:00;100397.59;;;11.00;61.60
34124;BME280;13153;52.316;21.166;2022-11-15T09:36:26;100388.78;;;11.00;61.86
34124;BME280;13153;52.316;21.166;2022-11-15T09:38:52;100388.84;;;11.01;61.75
34124;BME280;13153;52.316;21.166;2022-11-15T09:41:43;100384.66;;;11.09;62.05
34124;BME280;13153;52.316;21.166;2022-11-15T09:44:41;100384.03;;;11.19;61.66
34124;BME280;13153;52.316;21.166;2022-11-15T09:48:06;100380.53;;;11.20;61.33
34124;BME280;13153;52.316;21.166;2022-11-15T09:50:48;100380.53;;;11.20;61.44
34124;BME280;13153;52.316;21.166;2022-11-15T09:53:28;100376.13;;;11.19;61.58
34124;BME280;13153;52.316;21.166;2022-11-15T09:56:25;100373.34;;;11.13;61.52
34124;BME280;13153;52.316;21.166;2022-11-15T10:05:24;100368.06;;;11.13;61.51
34124;BME280;13153;52.316;21.166;2022-11-15T10:08:05;100369.72;;;11.08;61.33
34124;BME280;13153;52.316;21.166;2022-11-15T10:10:41;100361.91;;;11.13;61.56
34124;BME280;13153;52.316;21.166;2022-11-15T10:13:26;100365.44;;;11.13;61.23
34124;BME280;13153;52.316;21.166;2022-11-15T10:22:21;100366.50;;;11.21;61.48
34124;BME280;13153;52.316;21.166;2022-11-15T10:24:58;100362.22;;;11.25;61.32
34124;BME280;13153;52.316;21.166;2022-11-15T10:27:25;100366.66;;;11.28;61.25
34124;BME280;13153;52.316;21.166;2022-11-15T10:29:51;100362.28;;;11.28;61.36
34124;BME280;13153;52.316;21.166;2022-11-15T10:32:19;100360.66;;;11.33;61.20
34124;BME280;13153;52.316;21.166;2022-11-15T10:34:47;100358.09;;;11.36;61.37
34124;BME280;13153;52.316;21.166;2022-11-15T10:37:14;100359.03;;;11.40;61.32
34124;BME280;13153;52.316;21.166;2022-11-15T10:39:40;100347.66;;;11.41;60.85
34124;BME280;13153;52.316;21.166;2022-11-15T10:42:27;100342.41;;;11.42;60.96
34124;BME280;13153;52.316;21.166;2022-11-15T10:44:54;100345.97;;;11.44;60.96
34124;BME280;13153;52.316;21.166;2022-11-15T10:47:30;100341.63;;;11.46;61.07
34124;BME280;13153;52.316;21.166;2022-11-15T10:50:07;100331.13;;;11.48;61.05
34124;BME280;13153;52.316;21.166;2022-11-15T10:52:51;100332.94;;;11.50;60.80
34124;BME280;13153;52.316;21.166;2022-11-15T10:57:54;100332.84;;;11.46;60.64
34124;BME280;13153;52.316;21.166;2022-11-15T11:05:33;100326.63;;;11.44;60.84
34124;BME280;13153;52.316;21.166;2022-11-15T11:10:38;100322.25;;;11.44;60.82
34124;BME280;13153;52.316;21.166;2022-11-15T11:13:22;100325.84;;;11.48;60.87
34124;BME280;13153;52.316;21.166;2022-11-15T11:15:59;100320.56;;;11.46;60.59
34124;BME280;13153;52.316;21.166;2022-11-15T11:19:08;100315.31;;;11.48;60.74
34124;BME280;13153;52.316;21.166;2022-11-15T11:22:03;100317.09;;;11.49;60.97
34124;BME280;13153;52.316;21.166;2022-11-15T11:24:52;100312.75;;;11.51;60.74
34124;BME280;13153;52.316;21.166;2022-11-15T11:28:11;100310.97;;;11.50;60.59
34124;BME280;13153;52.316;21.166;2022-11-15T11:31:21;100305.56;;;11.44;60.79
34124;BME280;13153;52.316;21.166;2022-11-15T11:37:29;100303.78;;;11.43;60.74
34124;BME280;13153;52.316;21.166;2022-11-15T11:40:13;100295.81;;;11.40;60.86
34124;BME280;13153;52.316;21.166;2022-11-15T11:42:59;100302.00;;;11.42;61.36
34124;BME280;13153;52.316;21.166;2022-11-15T11:48:10;100294.19;;;11.46;61.36
34124;BME280;13153;52.316;21.166;2022-11-15T11:50:38;100289.75;;;11.44;61.13
34124;BME280;13153;52.316;21.166;2022-11-15T11:53:39;100286.31;;;11.46;61.24
34124;BME280;13153;52.316;21.166;2022-11-15T11:56:36;100284.59;;;11.48;61.08
34124;BME280;13153;52.316;21.166;2022-11-15T11:59:21;100279.38;;;11.51;61.17
34124;BME280;13153;52.316;21.166;2022-11-15T12:01:49;100277.66;;;11.53;61.24
34124;BME280;13153;52.316;21.166;2022-11-15T12:04:30;100263.63;;;11.54;61.11
34124;BME280;13153;52.316;21.166;2022-11-15T12:07:09;100263.69;;;11.59;61.22
34124;BME280;13153;52.316;21.166;2022-11-15T12:09:58;100268.16;;;11.62;61.01
34124;BME280;13153;52.316;21.166;2022-11-15T12:12:49;100257.53;;;11.58;60.86
34124;BME280;13153;52.316;21.166;2022-11-15T12:15:23;100249.56;;;11.55;60.77
34124;BME280;13153;52.316;21.166;2022-11-15T12:17:51;100250.47;;;11.54;60.76
34124;BME280;13153;52.316;21.166;2022-11-15T12:20:23;100250.47;;;11.56;60.99
34124;BME280;13153;52.316;21.166;2022-11-15T12:25:51;100247.91;;;11.61;60.76
34124;BME280;13153;52.316;21.166;2022-11-15T12:33:46;100248.00;;;11.65;61.01
34124;BME280;13153;52.316;21.166;2022-11-15T12:36:41;100236.63;;;11.66;61.05
34124;BME280;13153;52.316;21.166;2022-11-15T12:39:09;100237.53;;;11.68;61.21
34124;BME280;13153;52.316;21.166;2022-11-15T12:41:38;100239.28;;;11.68;60.85
34124;BME280;13153;52.316;21.166;2022-11-15T12:47:23;100236.66;;;11.68;61.13
34124;BME280;13153;52.316;21.166;2022-11-15T12:49:49;100227.88;;;11.69;61.41
34124;BME280;13153;52.316;21.166;2022-11-15T12:52:16;100234.00;;;11.68;61.18
34124;BME280;13153;52.316;21.166;2022-11-15T13:08:01;100230.47;;;11.66;61.23
34124;BME280;13153;52.316;21.166;2022-11-15T13:16:06;100225.09;;;11.61;61.47
34124;BME280;13153;52.316;21.166;2022-11-15T13:18:37;100231.22;;;11.60;61.28
34124;BME280;13153;52.316;21.166;2022-11-15T13:21:18;100228.56;;;11.58;61.36
34124;BME280;13153;52.316;21.166;2022-11-15T13:24:15;100218.88;;;11.57;61.39
34124;BME280;13153;52.316;21.166;2022-11-15T13:26:41;100217.94;;;11.55;61.62
34124;BME280;13153;52.316;21.166;2022-11-15T13:29:19;100212.69;;;11.55;61.34
34124;BME280;13153;52.316;21.166;2022-11-15T13:31:46;100216.22;;;11.54;61.14
34124;BME280;13153;52.316;21.166;2022-11-15T13:34:22;100214.47;;;11.55;61.51
34124;BME280;13153;52.316;21.166;2022-11-15T13:36:49;100208.31;;;11.54;61.38
34124;BME280;13153;52.316;21.166;2022-11-15T13:41:52;100207.41;;;11.54;61.53
34124;BME280;13153;52.316;21.166;2022-11-15T13:44:25;100202.09;;;11.51;61.36
34124;BME280;13153;52.316;21.166;2022-11-15T13:47:12;100198.53;;;11.49;61.63
34124;BME280;13153;52.316;21.166;2022-11-15T13:49:39;100191.47;;;11.46;61.63
34124;BME280;13153;52.316;21.166;2022-11-15T13:52:08;100187.94;;;11.46;61.37
34124;BME280;13153;52.316;21.166;2022-11-15T13:54:45;100184.41;;;11.45;61.47
34124;BME280;13153;52.316;21.166;2022-11-15T13:57:22;100184.38;;;11.44;61.56
34124;BME280;13153;52.316;21.166;2022-11-15T14:00:02;100188.75;;;11.43;61.53
34124;BME280;13153;52.316;21.166;2022-11-15T14:02:34;100194.91;;;11.44;61.77
34124;BME280;13153;52.316;21.166;2022-11-15T14:05:15;100189.66;;;11.44;61.70
34124;BME280;13153;52.316;21.166;2022-11-15T14:08:03;100196.63;;;11.42;62.04
34124;BME280;13153;52.316;21.166;2022-11-15T14:10:35;100196.63;;;11.42;61.69
34124;BME280;13153;52.316;21.166;2022-11-15T14:13:03;100185.22;;;11.41;61.69
34124;BME280;13153;52.316;21.166;2022-11-15T14:15:36;100189.59;;;11.41;61.92
34124;BME280;13153;52.316;21.166;2022-11-15T14:18:04;100191.31;;;11.39;61.79
34124;BME280;13153;52.316;21.166;2022-11-15T14:20:37;100185.09;;;11.35;61.73
34124;BME280;13153;52.316;21.166;2022-11-15T14:23:27;100186.84;;;11.36;61.98
34124;BME280;13153;52.316;21.166;2022-11-15T14:25:57;100177.97;;;11.31;61.70
34124;BME280;13153;52.316;21.166;2022-11-15T14:30:51;100179.59;;;11.24;61.95
34124;BME280;13153;52.316;21.166;2022-11-15T14:33:30;100175.97;;;11.19;61.98
34124;BME280;13153;52.316;21.166;2022-11-15T14:36:04;100175.94;;;11.18;62.29